Aguanga, California
Current Conditions -  °F | °C
As of 5:55 AM on Wednesday 26 Nov 2014 (Local Time) from KF70 Reporting Station
Clear Clear  
Wind Chill: 41°   Ceiling: Unl
Heat Index: 45°   Visibility: 10mi
Dew Point: 19°   Wind: 6mph
Humidity: 37%   Direction: 30°NNE
Pressure: 30.26"   Gusts: NA
Location:  33.44°N, 116.87°W
Report Text: KF70 261355Z AUTO 03005KT 10SM CLR 07/M07 A3026 RMK AO1
Loading
Personal Weather Stations






























Interactive Weather Map New forecast layout! Learn more

10-Day Weather Forecast

Advertisements
Track Severe Weather on mobile